Terminal Aerodrome Forecast
Issued by NWS

Home | Current Version | Previous Version | Text Only | Print | Product List | Glossary On
Versions: 1 2 3 4 5 6 7 8 9 10 11 12 13
185
FTPA31 PHFO 241748
TAFHJR
TAF
PHJR 241748Z 2418/2518 02004KT P6SM FEW025 SCT040
     FM242000 11011G18KT P6SM SCT025 BKN045
     FM250400 VRB03KT P6SM FEW030=

USA.gov is the U.S. government's official web portal to all federal, state and local government web resources and services.